createdAt,value
2016-11-10T00:00:28.712Z,0
2016-11-10T00:01:38.373Z,0
2016-11-10T00:02:48.640Z,0
2016-11-10T00:03:58.918Z,0
2016-11-10T00:05:09.214Z,0
2016-11-10T00:06:19.256Z,0
2016-11-10T00:07:29.578Z,0
2016-11-10T00:08:39.894Z,0
2016-11-10T00:09:50.182Z,0
2016-11-10T00:11:00.467Z,0
2016-11-10T00:12:10.439Z,0
2016-11-10T00:13:20.746Z,0
2016-11-10T00:14:30.711Z,0
2016-11-10T00:15:40.974Z,0
2016-11-10T00:16:51.247Z,0
2016-11-10T00:18:01.518Z,0
2016-11-10T00:19:11.797Z,0
2016-11-10T00:20:22.082Z,0
2016-11-10T00:21:32.064Z,0
2016-11-10T00:22:42.031Z,0
2016-11-10T00:23:52.018Z,0
2016-11-10T00:25:02.307Z,0
2016-11-10T00:26:12.603Z,0
2016-11-10T00:27:22.909Z,0
2016-11-10T00:28:33.214Z,0
2016-11-10T00:29:43.188Z,0
2016-11-10T00:30:53.457Z,0
2016-11-10T00:32:03.752Z,0
2016-11-10T00:33:14.034Z,0
2016-11-10T00:34:24.368Z,0
2016-11-10T00:35:34.653Z,0
2016-11-10T00:36:44.944Z,0
2016-11-10T00:37:55.210Z,0
2016-11-10T00:39:05.516Z,0
2016-11-10T00:40:15.789Z,0
2016-11-10T00:41:26.072Z,0
2016-11-10T00:42:36.062Z,0
2016-11-10T00:43:46.333Z,0
2016-11-10T00:44:56.638Z,0
2016-11-10T00:46:06.951Z,0
2016-11-10T00:47:17.232Z,0
2016-11-10T00:48:27.209Z,0
2016-11-10T00:49:37.503Z,0
2016-11-10T00:50:47.807Z,0
2016-11-10T00:51:58.075Z,0
2016-11-10T00:53:08.032Z,0
2016-11-10T00:54:18.322Z,0
2016-11-10T00:55:28.604Z,0
2016-11-10T00:56:38.879Z,0
2016-11-10T00:57:49.173Z,0
2016-11-10T00:58:59.464Z,0
2016-11-10T01:00:09.758Z,0
2016-11-10T01:01:20.040Z,0
2016-11-10T01:02:30.019Z,0
2016-11-10T01:03:40.301Z,0
2016-11-10T01:04:50.583Z,0
2016-11-10T01:06:00.234Z,0
2016-11-10T01:07:10.206Z,0
2016-11-10T01:08:20.487Z,0
2016-11-10T01:09:30.775Z,0
2016-11-10T01:10:40.737Z,0
2016-11-10T01:11:50.700Z,0
2016-11-10T01:13:00.663Z,0
2016-11-10T01:14:10.631Z,0
2016-11-10T01:15:20.913Z,0
2016-11-10T01:16:30.889Z,0
2016-11-10T01:17:41.183Z,0
2016-11-10T01:18:51.493Z,0
2016-11-10T01:20:01.771Z,0
2016-11-10T01:21:12.057Z,0
2016-11-10T01:22:22.338Z,0
2016-11-10T01:23:32.001Z,0
2016-11-10T01:24:41.656Z,0
2016-11-10T01:25:51.665Z,0
2016-11-10T01:27:01.633Z,0
2016-11-10T01:28:11.941Z,0
2016-11-10T01:29:22.214Z,0
2016-11-10T01:30:32.495Z,0
2016-11-10T01:31:42.778Z,0
2016-11-10T01:32:52.757Z,0
2016-11-10T01:34:03.036Z,0
2016-11-10T01:35:13.322Z,0
2016-11-10T01:36:23.608Z,0
2016-11-10T01:37:33.880Z,0
2016-11-10T01:38:43.843Z,0
2016-11-10T01:39:54.150Z,0
2016-11-10T01:41:04.125Z,0
2016-11-10T01:42:14.100Z,0
2016-11-10T01:43:24.073Z,0
2016-11-10T01:44:34.061Z,0
2016-11-10T01:45:44.356Z,0
2016-11-10T01:46:54.643Z,0
2016-11-10T01:48:04.934Z,0
2016-11-10T01:49:14.943Z,0
2016-11-10T01:50:25.248Z,0
2016-11-10T01:51:35.221Z,0
2016-11-10T01:52:45.498Z,0
2016-11-10T01:53:55.799Z,0
2016-11-10T01:55:05.761Z,0
2016-11-10T01:56:16.027Z,0
2016-11-10T01:57:26.025Z,0
2016-11-10T01:58:36.290Z,0
2016-11-10T01:59:45.943Z,0
2016-11-10T02:00:56.226Z,0
2016-11-10T02:02:06.507Z,0
2016-11-10T02:03:16.477Z,0
2016-11-10T02:04:26.438Z,0
2016-11-10T02:05:36.406Z,0
2016-11-10T02:06:46.684Z,0
2016-11-10T02:07:56.653Z,0
2016-11-10T02:09:06.934Z,0
2016-11-10T02:10:17.219Z,0
2016-11-10T02:11:27.189Z,0
2016-11-10T02:12:37.475Z,0
2016-11-10T02:13:47.138Z,0
2016-11-10T02:14:57.404Z,0
2016-11-10T02:16:07.690Z,0
2016-11-10T02:17:17.983Z,0
2016-11-10T02:18:28.259Z,0
2016-11-10T02:19:38.236Z,0
2016-11-10T02:20:48.510Z,0
2016-11-10T02:21:58.488Z,0
2016-11-10T02:23:08.762Z,0
2016-11-10T02:24:19.047Z,0
2016-11-10T02:25:29.372Z,0
2016-11-10T02:26:39.648Z,0
2016-11-10T02:27:49.967Z,0
2016-11-10T02:28:59.930Z,0
2016-11-10T02:30:10.207Z,0
2016-11-10T02:31:20.485Z,0
2016-11-10T02:32:30.756Z,0
2016-11-10T02:33:41.026Z,0
2016-11-10T02:34:51.306Z,0
2016-11-10T02:36:01.264Z,0
2016-11-10T02:37:11.551Z,0
2016-11-10T02:38:21.513Z,0
2016-11-10T02:39:31.172Z,0
2016-11-10T02:40:41.126Z,0
2016-11-10T02:41:51.396Z,0
2016-11-10T02:43:01.359Z,0
2016-11-10T02:44:11.642Z,0
2016-11-10T02:45:21.617Z,0
2016-11-10T02:46:31.580Z,0
2016-11-10T02:47:41.891Z,0
2016-11-10T02:48:51.863Z,0
2016-11-10T02:50:02.149Z,0
2016-11-10T02:51:12.468Z,0
2016-11-10T02:52:22.743Z,0
2016-11-10T02:53:33.020Z,0
2016-11-10T02:54:43.332Z,0
2016-11-10T02:55:53.607Z,0
2016-11-10T02:57:03.893Z,0
2016-11-10T02:58:13.866Z,0
2016-11-10T02:59:24.152Z,0
2016-11-10T03:00:34.425Z,0
2016-11-10T03:32:18.991Z,0
2016-11-10T03:33:29.246Z,0
2016-11-10T03:34:39.514Z,0
2016-11-10T03:35:49.780Z,0
2016-11-10T03:37:00.078Z,0
2016-11-10T03:38:10.029Z,0
2016-11-10T03:39:20.310Z,0
2016-11-10T03:40:30.642Z,0
2016-11-10T03:41:40.910Z,0
2016-11-10T03:42:50.881Z,0
2016-11-10T03:44:00.833Z,0
2016-11-10T03:45:10.801Z,0
2016-11-10T03:46:21.080Z,0
2016-11-10T03:47:31.369Z,0
2016-11-10T03:48:41.668Z,0
2016-11-10T03:49:51.995Z,0
2016-11-10T03:51:01.963Z,0
2016-11-10T03:52:12.245Z,0
2016-11-10T03:53:22.532Z,0
2016-11-10T03:54:32.808Z,0
2016-11-10T03:55:43.091Z,0
2016-11-10T03:56:53.366Z,0
2016-11-10T03:58:03.342Z,0
2016-11-10T03:59:13.315Z,0
2016-11-10T04:00:23.586Z,0
2016-11-10T04:01:33.574Z,0
2016-11-10T04:02:43.849Z,0
2016-11-10T04:03:54.116Z,0
2016-11-10T04:05:04.388Z,0
2016-11-10T04:06:14.676Z,0
2016-11-10T04:07:25.016Z,0
2016-11-10T04:08:35.299Z,0
2016-11-10T04:09:45.581Z,0
2016-11-10T04:10:55.866Z,0
2016-11-10T04:12:06.148Z,0
2016-11-10T04:13:16.137Z,0
2016-11-10T04:14:26.093Z,0
2016-11-10T04:15:36.383Z,0
2016-11-10T04:16:46.681Z,0
2016-11-10T04:17:56.957Z,0
2016-11-10T04:19:07.249Z,0
2016-11-10T04:20:17.222Z,0
2016-11-10T04:21:27.193Z,0
2016-11-10T04:22:37.469Z,0
2016-11-10T04:23:47.737Z,0
2016-11-10T04:24:58.017Z,0
2016-11-10T04:26:08.303Z,0
2016-11-10T04:27:18.266Z,0
2016-11-10T04:28:28.556Z,0
2016-11-10T04:29:38.844Z,0
2016-11-10T04:30:49.111Z,0
2016-11-10T04:31:59.392Z,0
2016-11-10T04:33:09.670Z,0
2016-11-10T04:34:19.645Z,0
2016-11-10T04:35:29.957Z,0
2016-11-10T04:36:40.243Z,0
2016-11-10T04:37:50.191Z,0
2016-11-10T04:39:00.462Z,0
2016-11-10T04:40:10.419Z,0
2016-11-10T04:41:20.385Z,0
2016-11-10T04:42:30.659Z,0
2016-11-10T04:43:40.948Z,0
2016-11-10T04:44:51.223Z,0
2016-11-10T04:46:01.495Z,0
2016-11-10T04:47:11.766Z,0
2016-11-10T04:48:21.416Z,0
2016-11-10T04:49:31.393Z,0
2016-11-10T04:50:41.056Z,0
2016-11-10T04:51:51.344Z,0
2016-11-10T04:53:01.009Z,0
2016-11-10T04:54:10.675Z,0
2016-11-10T04:55:20.636Z,0
2016-11-10T04:56:30.616Z,0
2016-11-10T04:57:40.901Z,0
2016-11-10T04:58:50.586Z,0
2016-11-10T05:00:00.877Z,0
2016-11-10T05:01:10.861Z,0
2016-11-10T05:02:20.837Z,0
2016-11-10T05:03:31.130Z,0
2016-11-10T05:04:41.395Z,0
2016-11-10T05:05:51.353Z,0
2016-11-10T05:07:01.005Z,0
2016-11-10T05:08:11.295Z,0
2016-11-10T05:09:21.578Z,0
2016-11-10T05:10:31.859Z,0
2016-11-10T05:11:41.826Z,0
2016-11-10T05:12:52.101Z,0
2016-11-10T05:14:02.074Z,0
2016-11-10T05:15:12.051Z,0
2016-11-10T05:16:21.719Z,0
2016-11-10T05:17:31.986Z,0
2016-11-10T05:18:42.270Z,0
2016-11-10T05:19:52.263Z,0
2016-11-10T05:21:02.532Z,0
2016-11-10T05:22:12.806Z,0
2016-11-10T05:23:23.106Z,0
2016-11-10T05:24:33.071Z,0
2016-11-10T05:25:43.345Z,0
2016-11-10T05:26:53.313Z,0
2016-11-10T05:28:03.590Z,0
2016-11-10T05:29:13.288Z,0
2016-11-10T05:30:23.574Z,0
2016-11-10T05:31:33.556Z,0
2016-11-10T05:32:43.877Z,4
2016-11-10T05:33:54.150Z,4
2016-11-10T05:35:03.820Z,4
2016-11-10T05:36:14.093Z,0
2016-11-10T05:37:24.047Z,4
2016-11-10T05:38:34.321Z,4
2016-11-10T05:39:44.612Z,4
2016-11-10T05:40:54.898Z,4
2016-11-10T05:42:05.171Z,4
2016-11-10T05:43:15.467Z,8
2016-11-10T05:44:25.756Z,4
2016-11-10T05:45:36.021Z,8
2016-11-10T05:46:46.015Z,12
2016-11-10T05:47:56.334Z,16
2016-11-10T05:49:05.987Z,20
2016-11-10T05:50:16.262Z,24
2016-11-10T05:51:26.543Z,24
2016-11-10T05:52:36.830Z,32
2016-11-10T05:53:47.117Z,36
2016-11-10T05:54:57.094Z,32
2016-11-10T05:56:07.375Z,32
2016-11-10T05:57:17.338Z,32
2016-11-10T05:58:27.603Z,40
2016-11-10T05:59:37.901Z,44
2016-11-10T06:00:48.188Z,48
2016-11-10T06:01:58.459Z,56
2016-11-10T06:03:08.735Z,56
2016-11-10T06:04:19.047Z,52
2016-11-10T06:05:29.340Z,40
2016-11-10T06:06:39.626Z,36
2016-11-10T06:07:49.589Z,64
2016-11-10T06:08:59.859Z,72
2016-11-10T06:10:10.135Z,64
2016-11-10T06:11:20.409Z,60
2016-11-10T06:12:30.680Z,48
2016-11-10T06:13:40.953Z,60
2016-11-10T06:14:50.608Z,80
2016-11-10T06:16:00.885Z,84
2016-11-10T06:17:10.847Z,92
2016-11-10T06:18:20.538Z,108
2016-11-10T06:19:30.830Z,164
2016-11-10T06:20:41.116Z,188
2016-11-10T06:21:51.394Z,168
2016-11-10T06:23:01.663Z,132
2016-11-10T06:24:11.941Z,96
2016-11-10T06:25:22.221Z,164
2016-11-10T06:26:32.210Z,276
2016-11-10T06:27:42.181Z,280
2016-11-10T06:28:52.141Z,292
2016-11-10T06:30:02.416Z,296
2016-11-10T06:31:12.682Z,308
2016-11-10T06:32:22.648Z,380
2016-11-10T06:33:32.622Z,452
2016-11-10T06:34:42.896Z,428
2016-11-10T06:35:53.209Z,356
2016-11-10T06:37:03.491Z,352
2016-11-10T06:38:13.769Z,488
2016-11-10T06:39:23.749Z,560
2016-11-10T06:40:34.037Z,536
2016-11-10T06:41:44.318Z,396
2016-11-10T06:42:54.603Z,368
2016-11-10T06:44:04.570Z,408
2016-11-10T06:45:14.851Z,468
2016-11-10T06:46:25.139Z,568
2016-11-10T06:47:35.461Z,636
2016-11-10T06:48:45.736Z,672
2016-11-10T06:49:56.028Z,720
2016-11-10T06:51:06.314Z,808
2016-11-10T06:52:16.590Z,816
2016-11-10T06:53:26.878Z,868
2016-11-10T06:54:36.545Z,992
2016-11-10T06:55:46.512Z,1040
2016-11-10T06:56:56.468Z,1016
2016-11-10T06:58:06.127Z,1072
2016-11-10T06:59:16.388Z,1160
2016-11-10T07:00:26.726Z,1120
2016-11-10T07:01:36.991Z,1056
2016-11-10T07:02:46.951Z,964
2016-11-10T07:03:57.242Z,980
2016-11-10T07:05:07.526Z,1048
2016-11-10T07:06:17.803Z,1064
2016-11-10T07:07:27.768Z,1144
2016-11-10T07:08:37.466Z,1224
2016-11-10T07:09:47.749Z,1304
2016-11-10T07:10:58.023Z,1372
2016-11-10T07:12:08.312Z,1428
2016-11-10T07:13:18.576Z,1540
2016-11-10T07:14:28.560Z,1640
2016-11-10T07:15:38.845Z,1812
2016-11-10T07:16:48.503Z,1972
2016-11-10T07:17:58.774Z,1952
2016-11-10T07:19:08.745Z,2076
2016-11-10T07:20:18.418Z,2340
2016-11-10T07:21:28.710Z,2500
2016-11-10T07:22:39.035Z,2524
2016-11-10T07:23:49.322Z,2368
2016-11-10T07:24:59.300Z,2432
2016-11-10T07:26:09.586Z,2584
2016-11-10T07:27:19.253Z,2712
2016-11-10T07:28:29.552Z,2860
2016-11-10T07:29:39.865Z,2948
2016-11-10T07:30:50.138Z,2944
2016-11-10T07:32:00.120Z,2920
2016-11-10T07:33:10.410Z,2888
2016-11-10T07:34:20.683Z,2888
2016-11-10T07:35:30.655Z,2840
2016-11-10T07:36:40.927Z,2804
2016-11-10T07:37:51.207Z,2876
2016-11-10T07:39:01.484Z,3028
2016-11-10T07:40:11.146Z,3028
2016-11-10T07:41:21.427Z,3004
2016-11-10T07:42:31.396Z,2808
2016-11-10T07:43:41.680Z,2664
2016-11-10T07:44:51.667Z,2568
2016-11-10T07:46:01.979Z,2588
2016-11-10T07:47:12.264Z,2568
2016-11-10T07:48:22.543Z,2572
2016-11-10T07:49:32.549Z,2640
2016-11-10T07:50:42.525Z,2672
2016-11-10T07:51:52.808Z,2780
2016-11-10T07:53:03.079Z,2836
2016-11-10T07:54:12.428Z,2816
2016-11-10T07:55:22.757Z,2604
2016-11-10T07:56:33.034Z,2536
2016-11-10T07:57:43.006Z,2948
2016-11-10T07:58:53.324Z,3108
2016-11-10T08:00:03.604Z,3160
2016-11-10T08:01:13.885Z,2956
2016-11-10T08:02:23.877Z,2844
2016-11-10T08:03:33.875Z,3104
2016-11-10T08:04:43.860Z,3164
2016-11-10T08:05:54.138Z,3244
2016-11-10T08:07:04.424Z,3448
2016-11-10T08:08:14.714Z,3552
2016-11-10T08:09:24.992Z,3636
2016-11-10T08:10:35.268Z,3776
2016-11-10T08:11:45.550Z,3648
2016-11-10T08:12:55.833Z,3796
2016-11-10T08:14:06.117Z,3900
2016-11-10T08:15:15.766Z,3920
2016-11-10T08:16:26.045Z,3736
2016-11-10T08:17:35.728Z,3636
2016-11-10T08:18:45.991Z,3552
2016-11-10T08:19:55.657Z,3548
2016-11-10T08:21:05.939Z,3640
2016-11-10T08:22:16.221Z,3604
2016-11-10T08:23:26.508Z,3580
2016-11-10T08:24:36.791Z,3288
2016-11-10T08:25:47.057Z,3312
2016-11-10T08:26:56.719Z,3876
2016-11-10T08:28:06.709Z,3860
2016-11-10T08:29:16.977Z,4416
2016-11-10T08:30:26.669Z,4072
2016-11-10T08:31:36.945Z,3844
2016-11-10T08:32:47.221Z,4120
2016-11-10T08:33:57.504Z,3820
2016-11-10T08:35:07.789Z,4200
2016-11-10T08:36:18.059Z,4088
2016-11-10T08:37:28.025Z,4044
2016-11-10T08:38:37.691Z,3884
2016-11-10T08:39:47.980Z,4468
2016-11-10T08:40:57.637Z,4660
2016-11-10T08:42:07.910Z,4908
2016-11-10T08:43:18.201Z,5760
2016-11-10T08:44:28.163Z,6616
2016-11-10T08:45:38.447Z,6488
2016-11-10T08:46:48.721Z,7396
2016-11-10T08:47:58.687Z,6440
2016-11-10T08:49:08.974Z,6536
2016-11-10T08:50:19.258Z,4952
2016-11-10T08:51:29.549Z,4476
2016-11-10T08:52:39.841Z,4260
2016-11-10T08:53:50.115Z,4228
2016-11-10T08:55:00.397Z,4156
2016-11-10T08:56:10.370Z,4104
2016-11-10T08:57:20.647Z,3956
2016-11-10T08:58:30.939Z,3672
2016-11-10T08:59:40.912Z,3760
2016-11-10T09:00:51.237Z,3560
2016-11-10T09:02:01.204Z,3284
2016-11-10T09:03:11.489Z,6972
2016-11-10T09:04:21.163Z,6564
2016-11-10T09:05:31.129Z,6088
2016-11-10T09:06:41.101Z,6320
2016-11-10T09:07:51.376Z,6416
2016-11-10T09:09:01.688Z,6428
2016-11-10T09:10:11.973Z,6604
2016-11-10T09:11:22.268Z,6620
2016-11-10T09:12:32.542Z,6780
2016-11-10T09:13:42.822Z,6752
2016-11-10T09:14:53.097Z,6656
2016-11-10T09:16:03.368Z,6748
2016-11-10T09:17:13.646Z,6660
2016-11-10T09:18:23.607Z,6788
2016-11-10T09:19:33.928Z,6780
2016-11-10T09:20:44.205Z,6784
2016-11-10T09:21:54.488Z,6724
2016-11-10T09:23:04.758Z,6800
2016-11-10T09:24:15.104Z,6812
2016-11-10T09:25:25.395Z,6736
2016-11-10T09:26:35.676Z,6688
2016-11-10T09:27:45.648Z,6888
2016-11-10T09:28:55.926Z,7100
2016-11-10T09:30:05.917Z,7336
2016-11-10T09:31:16.205Z,7472
2016-11-10T09:32:26.486Z,7644
2016-11-10T09:33:36.468Z,7328
2016-11-10T09:34:46.754Z,7880
2016-11-10T09:35:57.031Z,8148
2016-11-10T09:37:07.005Z,8300
2016-11-10T09:38:17.293Z,7060
2016-11-10T09:39:27.565Z,7820
2016-11-10T09:40:37.238Z,5284
2016-11-10T09:41:47.218Z,5096
2016-11-10T09:42:57.486Z,5220
2016-11-10T09:44:06.842Z,5060
2016-11-10T09:45:17.119Z,5104
2016-11-10T09:46:27.094Z,5040
2016-11-10T09:47:37.376Z,4952
2016-11-10T09:48:47.673Z,4868
2016-11-10T09:49:57.955Z,4676
2016-11-10T09:51:08.243Z,4416
2016-11-10T09:52:18.213Z,4204
2016-11-10T09:53:27.601Z,4084
2016-11-10T09:54:37.878Z,4036
2016-11-10T09:55:47.851Z,3984
2016-11-10T09:56:58.139Z,3904
2016-11-10T09:58:08.103Z,3788
2016-11-10T09:59:18.383Z,3684
2016-11-10T10:00:28.669Z,3720
2016-11-10T10:01:38.642Z,3712
2016-11-10T10:02:48.614Z,3624
2016-11-10T10:03:58.599Z,3620
2016-11-10T10:05:08.877Z,3764
2016-11-10T10:06:18.850Z,3948
2016-11-10T10:07:29.161Z,3948
2016-11-10T10:08:39.455Z,3844
2016-11-10T10:09:49.128Z,3908
2016-11-10T10:10:59.121Z,4072
2016-11-10T10:12:09.410Z,4132
2016-11-10T10:13:19.457Z,4052
2016-11-10T10:14:29.117Z,3944
2016-11-10T10:15:39.085Z,3752
2016-11-10T10:16:48.757Z,3544
2016-11-10T10:17:59.041Z,3440
2016-11-10T10:19:09.022Z,3544
2016-11-10T10:20:18.692Z,3836
2016-11-10T10:21:28.970Z,4284
2016-11-10T10:22:38.649Z,4812
2016-11-10T10:23:48.942Z,5252
2016-11-10T10:24:59.226Z,5604
2016-11-10T10:26:08.880Z,5784
2016-11-10T10:27:18.540Z,5164
2016-11-10T10:28:28.815Z,4792
2016-11-10T10:29:39.102Z,4528
2016-11-10T10:30:49.388Z,4988
2016-11-10T10:31:59.370Z,5160
2016-11-10T10:33:09.025Z,4632
2016-11-10T10:34:19.309Z,4684
2016-11-10T10:35:29.594Z,6548
2016-11-10T10:36:39.886Z,6120
2016-11-10T10:37:50.575Z,7364
2016-11-10T10:39:00.244Z,5836
2016-11-10T10:40:10.215Z,10824
2016-11-10T10:41:20.184Z,9324
2016-11-10T10:42:30.146Z,5084
2016-11-10T10:43:40.441Z,5088
2016-11-10T10:44:50.729Z,4532
2016-11-10T10:46:00.701Z,4296
2016-11-10T10:47:10.986Z,4148
2016-11-10T10:48:21.278Z,4504
2016-11-10T10:49:31.561Z,4844
2016-11-10T10:50:41.853Z,5476
2016-11-10T10:51:52.157Z,5876
2016-11-10T10:53:02.495Z,7956
2016-11-10T10:54:12.784Z,10792
2016-11-10T10:55:23.068Z,10052
2016-11-10T10:56:32.744Z,9932
2016-11-10T10:57:43.042Z,8184
2016-11-10T10:58:53.325Z,7280
2016-11-10T11:00:03.300Z,4960
2016-11-10T11:01:13.282Z,4328
2016-11-10T11:02:23.553Z,5304
2016-11-10T11:03:33.841Z,9752
2016-11-10T11:04:44.167Z,4320
2016-11-10T11:05:54.159Z,6012
2016-11-10T11:07:04.153Z,6584
2016-11-10T11:08:14.438Z,9112
2016-11-10T11:09:24.700Z,9244
2016-11-10T11:10:35.025Z,4168
2016-11-10T11:11:45.052Z,9964
2016-11-10T11:12:54.728Z,5468
2016-11-10T11:14:05.025Z,10276
2016-11-10T11:15:15.312Z,10332
2016-11-10T11:16:24.989Z,4112
2016-11-10T11:17:35.277Z,3588
2016-11-10T11:18:45.567Z,4204
2016-11-10T11:19:55.544Z,4336
2016-11-10T11:21:05.835Z,4160
2016-11-10T11:22:16.112Z,4836
2016-11-10T11:23:26.395Z,5060
2016-11-10T11:24:36.720Z,5244
2016-11-10T11:25:47.012Z,9436
2016-11-10T11:26:57.378Z,5696
2016-11-10T11:28:07.685Z,5332
2016-11-10T11:29:17.967Z,4972
2016-11-10T11:30:27.634Z,4592
2016-11-10T11:31:37.928Z,4416
2016-11-10T11:32:47.593Z,4824
2016-11-10T11:33:57.900Z,7708
2016-11-10T11:35:08.180Z,5476
2016-11-10T11:36:18.157Z,5680
2016-11-10T11:37:28.436Z,7232
2016-11-10T11:38:38.423Z,5952
2016-11-10T11:39:48.722Z,4344
2016-11-10T11:40:58.694Z,5164
2016-11-10T11:42:08.981Z,4544
2016-11-10T11:43:19.260Z,4604
2016-11-10T11:44:29.229Z,7164
2016-11-10T11:45:39.247Z,7004
2016-11-10T11:46:49.539Z,3420
2016-11-10T11:47:59.514Z,3736
2016-11-10T11:49:09.516Z,7504
2016-11-10T11:50:19.498Z,2872
2016-11-10T11:51:29.790Z,3784
2016-11-10T11:52:40.081Z,2700
2016-11-10T11:53:50.064Z,2972
2016-11-10T11:55:00.355Z,3060
2016-11-10T11:56:10.682Z,10100
2016-11-10T11:57:20.979Z,9948
2016-11-10T11:58:31.261Z,8704
2016-11-10T11:59:41.218Z,10124
2016-11-10T12:00:51.198Z,10256
2016-11-10T12:02:01.490Z,10204
2016-11-10T12:03:11.458Z,10272
2016-11-10T12:04:21.733Z,10336
2016-11-10T12:05:32.024Z,10408
2016-11-10T12:06:42.065Z,10588
2016-11-10T12:07:52.348Z,10332
2016-11-10T12:09:02.326Z,8140
2016-11-10T12:10:12.617Z,7076
2016-11-10T12:11:22.891Z,5008
2016-11-10T12:12:33.172Z,6060
2016-11-10T12:13:43.464Z,5456
2016-11-10T12:14:53.514Z,3916
2016-11-10T12:16:03.806Z,7064
2016-11-10T12:17:13.776Z,6692
2016-11-10T12:18:24.056Z,7744
2016-11-10T12:19:34.336Z,8376
2016-11-10T12:20:44.317Z,6052
2016-11-10T12:21:54.601Z,5852
2016-11-10T12:23:04.617Z,9636
2016-11-10T12:24:14.904Z,10800
2016-11-10T12:25:24.876Z,11008
2016-11-10T12:26:35.157Z,6580
2016-11-10T12:27:45.435Z,5336
2016-11-10T12:28:55.420Z,6356
2016-11-10T12:30:05.712Z,10992
2016-11-10T12:31:15.688Z,10984
2016-11-10T12:32:25.666Z,10936
2016-11-10T12:33:35.635Z,10960
2016-11-10T12:34:45.907Z,9952
2016-11-10T12:35:56.200Z,10732
2016-11-10T12:37:06.496Z,10700
2016-11-10T12:38:16.462Z,10228
2016-11-10T12:39:26.435Z,9900
2016-11-10T12:40:36.738Z,9504
2016-11-10T12:41:46.739Z,9176
2016-11-10T12:42:56.711Z,8856
2016-11-10T12:44:06.997Z,8620
2016-11-10T12:45:17.283Z,8388
2016-11-10T12:46:27.560Z,8192
2016-11-10T12:47:37.841Z,8052
2016-11-10T12:48:48.118Z,7908
2016-11-10T12:49:58.415Z,7752
2016-11-10T12:51:08.091Z,7612
2016-11-10T12:52:17.802Z,7540
2016-11-10T12:53:28.080Z,6620
2016-11-10T12:54:38.368Z,3700
2016-11-10T12:55:48.559Z,7176
2016-11-10T12:56:58.851Z,2972
2016-11-10T12:58:09.152Z,6416
2016-11-10T12:59:19.133Z,7136
2016-11-10T13:00:29.435Z,7676
2016-11-10T13:01:39.405Z,3964
2016-11-10T13:02:49.393Z,8508
2016-11-10T13:03:59.697Z,3600
2016-11-10T13:05:10.022Z,7696
2016-11-10T13:06:20.334Z,7280
2016-11-10T13:07:30.621Z,7156
2016-11-10T13:08:40.937Z,7104
2016-11-10T13:09:50.934Z,7060
2016-11-10T13:11:01.272Z,6904
2016-11-10T13:12:11.555Z,6800
2016-11-10T13:13:21.527Z,6748
2016-11-10T13:14:31.506Z,6796
2016-11-10T13:15:41.199Z,6472
2016-11-10T13:16:51.187Z,6576
2016-11-10T13:18:01.476Z,6368
2016-11-10T13:19:11.770Z,6504
2016-11-10T13:20:22.095Z,2192
2016-11-10T13:21:32.403Z,2120
2016-11-10T13:22:42.707Z,2076
2016-11-10T13:23:52.689Z,2196
2016-11-10T13:25:02.962Z,2360
2016-11-10T13:26:12.317Z,3076
2016-11-10T13:27:22.293Z,6000
2016-11-10T13:28:32.291Z,4712
2016-11-10T13:29:41.953Z,2360
2016-11-10T13:30:51.929Z,2284
2016-11-10T13:32:02.208Z,2312
2016-11-10T13:33:12.493Z,2340
2016-11-10T13:34:22.771Z,2320
2016-11-10T13:35:33.065Z,2292
2016-11-10T13:36:43.359Z,2244
2016-11-10T13:37:53.650Z,2060
2016-11-10T13:39:03.938Z,1744
2016-11-10T13:40:14.223Z,1320
2016-11-10T13:41:24.207Z,904
2016-11-10T13:42:34.186Z,588
2016-11-10T13:43:44.509Z,424
2016-11-10T13:44:54.490Z,304
2016-11-10T13:46:04.162Z,248
2016-11-10T13:47:14.156Z,288
2016-11-10T13:48:24.441Z,384
2016-11-10T13:49:34.118Z,512
2016-11-10T13:50:44.428Z,632
2016-11-10T13:51:54.716Z,724
2016-11-10T13:53:05.007Z,784
2016-11-10T13:54:14.989Z,868
2016-11-10T13:55:25.303Z,968
2016-11-10T13:56:35.283Z,1056
2016-11-10T13:57:45.255Z,1096
2016-11-10T13:58:55.536Z,1104
2016-11-10T14:00:05.828Z,1104
2016-11-10T14:01:16.136Z,1112
2016-11-10T14:02:26.431Z,1128
2016-11-10T14:03:36.397Z,1124
2016-11-10T14:04:46.685Z,1112
2016-11-10T14:05:57.001Z,1060
2016-11-10T14:07:06.989Z,984
2016-11-10T14:08:17.284Z,924
2016-11-10T14:09:27.617Z,896
2016-11-10T14:10:37.888Z,908
2016-11-10T14:11:48.193Z,916
2016-11-10T14:12:58.480Z,888
2016-11-10T14:14:08.812Z,844
2016-11-10T14:15:18.819Z,780
2016-11-10T14:16:28.487Z,724
2016-11-10T14:17:38.762Z,704
2016-11-10T14:18:49.074Z,692
2016-11-10T14:19:59.092Z,676
2016-11-10T14:21:09.077Z,648
2016-11-10T14:22:19.366Z,608
2016-11-10T14:23:29.692Z,564
2016-11-10T14:24:39.797Z,512
2016-11-10T14:25:50.111Z,472
2016-11-10T14:27:00.479Z,448
2016-11-10T14:28:10.501Z,440
2016-11-10T14:29:20.855Z,432
2016-11-10T14:30:31.204Z,412
2016-11-10T14:31:41.542Z,388
2016-11-10T14:32:51.848Z,360
2016-11-10T14:34:02.190Z,336
2016-11-10T14:35:12.555Z,316
2016-11-10T14:36:22.621Z,324
2016-11-10T14:37:32.942Z,348
2016-11-10T14:38:43.766Z,364
2016-11-10T14:39:54.064Z,368
2016-11-10T14:41:04.081Z,384
2016-11-10T14:42:14.384Z,400
2016-11-10T14:43:24.444Z,396
2016-11-10T14:44:34.749Z,380
2016-11-10T14:45:45.209Z,356
2016-11-10T14:46:55.555Z,340
2016-11-10T14:48:05.857Z,316
2016-11-10T14:49:16.151Z,296
2016-11-10T14:50:26.206Z,276
2016-11-10T14:51:36.505Z,260
2016-11-10T14:52:46.516Z,252
2016-11-10T14:53:56.860Z,244
2016-11-10T14:55:07.229Z,236
2016-11-10T14:56:17.642Z,232
2016-11-10T14:57:27.959Z,224
2016-11-10T14:58:38.255Z,208
2016-11-10T14:59:48.551Z,192
2016-11-10T15:00:58.916Z,176
2016-11-10T15:02:09.247Z,164
2016-11-10T15:03:19.265Z,148
2016-11-10T15:04:29.608Z,136
2016-11-10T15:05:39.924Z,128
2016-11-10T15:06:50.229Z,116
2016-11-10T15:08:00.593Z,104
2016-11-10T15:09:10.890Z,96
2016-11-10T15:10:21.196Z,88
2016-11-10T15:11:31.513Z,80
2016-11-10T15:12:41.546Z,76
2016-11-10T15:13:51.855Z,68
2016-11-10T15:15:02.174Z,64
2016-11-10T15:16:12.558Z,56
2016-11-10T15:17:22.894Z,52
2016-11-10T15:18:32.867Z,48
2016-11-10T15:19:42.320Z,44
2016-11-10T15:20:52.643Z,40
2016-11-10T15:22:02.651Z,40
2016-11-10T15:23:12.651Z,36
2016-11-10T15:24:22.967Z,32
2016-11-10T15:25:33.259Z,32
2016-11-10T15:26:43.581Z,24
2016-11-10T15:27:53.908Z,20
2016-11-10T15:29:04.209Z,20
2016-11-10T15:30:14.608Z,16
2016-11-10T15:31:24.624Z,16
2016-11-10T15:32:34.922Z,16
2016-11-10T15:33:45.309Z,16
2016-11-10T15:34:55.604Z,8
2016-11-10T15:36:05.909Z,8
2016-11-10T15:37:16.218Z,8
2016-11-10T15:38:26.556Z,8
2016-11-10T15:39:36.543Z,8
2016-11-10T15:40:46.857Z,4
2016-11-10T15:41:57.161Z,4
2016-11-10T15:43:07.144Z,4
2016-11-10T15:44:17.178Z,0
2016-11-10T15:45:27.476Z,0
2016-11-10T15:46:37.773Z,4
2016-11-10T15:47:48.069Z,4
2016-11-10T15:48:58.061Z,0
2016-11-10T15:50:08.377Z,0
2016-11-10T15:51:18.358Z,0
2016-11-10T15:52:28.375Z,0
2016-11-10T15:53:38.387Z,0
2016-11-10T15:54:48.381Z,0
2016-11-10T15:55:58.685Z,0
2016-11-10T15:57:08.670Z,0
2016-11-10T15:58:18.979Z,0
2016-11-10T15:59:28.979Z,0
2016-11-10T16:00:38.974Z,0
2016-11-10T16:01:48.969Z,0
2016-11-10T16:02:59.274Z,0
2016-11-10T16:04:09.603Z,0
2016-11-10T16:05:19.919Z,0
2016-11-10T16:06:29.887Z,0
2016-11-10T16:07:39.858Z,0
2016-11-10T16:08:50.147Z,0
2016-11-10T16:10:00.447Z,0
2016-11-10T16:11:10.732Z,0
2016-11-10T16:12:21.042Z,0
2016-11-10T16:13:31.325Z,0
2016-11-10T16:14:41.630Z,0
2016-11-10T16:15:51.929Z,0
2016-11-10T16:17:01.926Z,0
2016-11-10T16:18:11.976Z,0
2016-11-10T16:19:22.031Z,0
2016-11-10T16:20:32.343Z,0
2016-11-10T16:21:42.630Z,0
2016-11-10T16:22:52.289Z,0
2016-11-10T16:24:02.294Z,0
2016-11-10T16:25:12.597Z,0
2016-11-10T16:26:22.881Z,0
2016-11-10T16:27:33.181Z,0
2016-11-10T16:28:43.498Z,0
2016-11-10T16:29:53.850Z,0
2016-11-10T16:31:03.846Z,0
2016-11-10T16:32:13.837Z,0
2016-11-10T16:33:23.826Z,0
2016-11-10T16:34:34.119Z,0
2016-11-10T16:35:44.106Z,0
2016-11-10T16:36:54.405Z,0
2016-11-10T16:38:04.706Z,0
2016-11-10T16:39:14.994Z,0
2016-11-10T16:40:24.973Z,0
2016-11-10T16:41:34.961Z,0
2016-11-10T16:42:45.249Z,0
2016-11-10T16:43:55.552Z,0
2016-11-10T16:45:05.523Z,0
2016-11-10T16:46:15.790Z,0
2016-11-10T16:47:26.111Z,0
2016-11-10T16:48:36.416Z,0
2016-11-10T16:49:46.403Z,0